Wetterdaten: Woche 06.01.14 - 12.01.14 (KW2)
Datum Zeit Temp. Auen Feucht Auen Luftdruck Regen Richtung Windben
06.01.2014 00:00 0,7 C 93 % 1017,7 hPa 0,0 mm W-SW 2,7 km/h (1 Bft)
06.01.2014 01:00 0,3 C 94 % 1018,2 hPa 0,0 mm W 1,3 km/h (1 Bft)
06.01.2014 02:00 0,3 C 93 % 1019,1 hPa 0,0 mm W 1,6 km/h (1 Bft)
06.01.2014 03:00 -0,2 C 94 % 1019,3 hPa 0,0 mm W 1,1 km/h (0 Bft)
06.01.2014 04:00 -0,2 C 94 % 1019,2 hPa 0,0 mm NW 0,7 km/h (0 Bft)
06.01.2014 05:00 0,1 C 94 % 1018,8 hPa 0,0 mm NW 0,3 km/h (0 Bft)
06.01.2014 06:00 0,5 C 94 % 1018,5 hPa 0,0 mm NW 0,5 km/h (0 Bft)
06.01.2014 07:00 0,4 C 94 % 1019,0 hPa 0,0 mm NW 1,9 km/h (1 Bft)
06.01.2014 08:00 -0,8 C 94 % 1019,5 hPa 0,0 mm W 1,5 km/h (1 Bft)
06.01.2014 09:00 0,9 C 94 % 1019,8 hPa 0,0 mm W 0,0 km/h (0 Bft)
06.01.2014 10:00 4,5 C 91 % 1019,9 hPa 0,0 mm W 0,5 km/h (0 Bft)
06.01.2014 11:00 5,3 C 88 % 1019,6 hPa 0,0 mm S-SW 2,5 km/h (1 Bft)
06.01.2014 12:00 6,2 C 86 % 1019,1 hPa 0,2 mm S-SO 4,7 km/h (1 Bft)
06.01.2014 13:00 6,8 C 83 % 1018,6 hPa 0,0 mm S-SO 3,1 km/h (1 Bft)
06.01.2014 14:00 6,2 C 86 % 1018,5 hPa 0,0 mm S 1,7 km/h (1 Bft)
06.01.2014 15:00 5,2 C 89 % 1018,5 hPa 0,0 mm S 0,1 km/h (0 Bft)
06.01.2014 16:00 3,4 C 91 % 1018,4 hPa 0,0 mm S 0,3 km/h (0 Bft)
06.01.2014 17:00 2,2 C 92 % 1018,5 hPa 0,0 mm SW 1,9 km/h (1 Bft)
06.01.2014 18:00 1,0 C 93 % 1018,6 hPa 0,0 mm W 1,1 km/h (0 Bft)
06.01.2014 19:00 0,3 C 93 % 1018,3 hPa 0,0 mm W 1,7 km/h (1 Bft)
06.01.2014 20:00 -0,3 C 93 % 1017,3 hPa 0,0 mm W 0,5 km/h (0 Bft)
06.01.2014 21:00 -0,4 C 93 % 1016,6 hPa 0,0 mm W 0,7 km/h (0 Bft)
06.01.2014 22:00 -0,3 C 94 % 1016,5 hPa 0,0 mm W 2,1 km/h (1 Bft)
06.01.2014 23:00 -0,1 C 93 % 1016,4 hPa 0,0 mm W 2,3 km/h (1 Bft)
07.01.2014 00:00 -0,3 C 94 % 1016,3 hPa 0,0 mm W 2,1 km/h (1 Bft)
07.01.2014 01:00 0,1 C 94 % 1016,6 hPa 0,0 mm W 2,0 km/h (1 Bft)
07.01.2014 02:00 1,4 C 93 % 1017,8 hPa 0,0 mm W 3,9 km/h (1 Bft)
07.01.2014 03:00 2,5 C 92 % 1019,8 hPa 0,0 mm W 5,6 km/h (1 Bft)
07.01.2014 04:00 2,2 C 92 % 1020,7 hPa 0,0 mm O 2,3 km/h (1 Bft)
07.01.2014 05:00 0,9 C 93 % 1021,3 hPa 0,0 mm W 3,6 km/h (1 Bft)
07.01.2014 06:00 0,3 C 93 % 1022,1 hPa 0,0 mm W 1,6 km/h (1 Bft)
07.01.2014 07:00 -0,1 C 93 % 1022,7 hPa 0,0 mm W 2,5 km/h (1 Bft)
07.01.2014 08:00 0,8 C 94 % 1023,4 hPa 0,0 mm W 3,1 km/h (1 Bft)
07.01.2014 09:00 1,8 C 93 % 1023,7 hPa 0,0 mm W 0,0 km/h (0 Bft)
07.01.2014 10:00 2,7 C 93 % 1023,9 hPa 0,0 mm W 1,2 km/h (1 Bft)
07.01.2014 11:00 4,4 C 92 % 1023,4 hPa 0,0 mm W 0,7 km/h (0 Bft)
07.01.2014 12:00 5,4 C 91 % 1022,6 hPa 0,0 mm O 2,3 km/h (1 Bft)
07.01.2014 13:00 6,7 C 86 % 1022,0 hPa 0,0 mm O-SO 4,4 km/h (1 Bft)
07.01.2014 14:00 7,7 C 83 % 1021,8 hPa 0,0 mm SO 7,1 km/h (2 Bft)
07.01.2014 15:00 6,2 C 85 % 1021,9 hPa 0,0 mm O-SO 4,9 km/h (1 Bft)
07.01.2014 16:00 3,5 C 91 % 1022,0 hPa 0,0 mm O-SO 1,3 km/h (1 Bft)
07.01.2014 17:00 2,5 C 92 % 1022,3 hPa 0,0 mm O-SO 1,6 km/h (1 Bft)
07.01.2014 18:00 1,3 C 93 % 1022,8 hPa 0,0 mm W 1,9 km/h (1 Bft)
07.01.2014 19:00 0,3 C 93 % 1022,9 hPa 0,0 mm W 1,2 km/h (1 Bft)
07.01.2014 20:00 0,4 C 93 % 1023,1 hPa 0,0 mm W 2,5 km/h (1 Bft)
07.01.2014 21:00 -0,1 C 93 % 1023,2 hPa 0,0 mm W 1,1 km/h (0 Bft)
07.01.2014 22:00 -0,7 C 93 % 1023,0 hPa 0,0 mm W 0,3 km/h (0 Bft)
07.01.2014 23:00 -0,8 C 94 % 1022,8 hPa 0,0 mm W 0,7 km/h (0 Bft)
08.01.2014 00:00 -1,1 C 93 % 1022,8 hPa 0,0 mm W 0,9 km/h (0 Bft)
08.01.2014 01:00 -1,0 C 93 % 1022,9 hPa 0,0 mm W 1,9 km/h (1 Bft)
08.01.2014 02:00 -1,0 C 94 % 1023,3 hPa 0,0 mm W-SW 1,7 km/h (1 Bft)
08.01.2014 03:00 -1,2 C 94 % 1023,4 hPa 0,0 mm W 0,8 km/h (0 Bft)
08.01.2014 04:00 -0,7 C 94 % 1023,6 hPa 0,0 mm W 2,3 km/h (1 Bft)
08.01.2014 05:00 0,7 C 94 % 1024,3 hPa 0,0 mm W-SW 2,1 km/h (1 Bft)
08.01.2014 06:00 1,3 C 94 % 1025,4 hPa 0,0 mm N-NO 1,5 km/h (1 Bft)
08.01.2014 07:00 1,7 C 93 % 1025,8 hPa 0,0 mm W-NW 1,9 km/h (1 Bft)
08.01.2014 08:00 2,2 C 94 % 1026,2 hPa 0,0 mm W 2,1 km/h (1 Bft)
08.01.2014 09:00 3,4 C 93 % 1026,5 hPa 0,0 mm W-NW 2,4 km/h (1 Bft)
08.01.2014 10:00 5,2 C 92 % 1026,6 hPa 0,0 mm S 0,8 km/h (0 Bft)
08.01.2014 11:00 8,9 C 83 % 1026,0 hPa 0,0 mm S 1,5 km/h (1 Bft)
08.01.2014 12:00 9,8 C 81 % 1025,5 hPa 0,0 mm O-SO 2,1 km/h (1 Bft)
08.01.2014 13:00 10,1 C 83 % 1025,3 hPa 0,0 mm S 0,9 km/h (0 Bft)
08.01.2014 14:00 9,4 C 84 % 1024,9 hPa 0,0 mm S 0,8 km/h (0 Bft)
08.01.2014 15:00 8,6 C 86 % 1024,7 hPa 0,0 mm S 0,8 km/h (0 Bft)
08.01.2014 16:00 5,7 C 89 % 1024,6 hPa 0,0 mm S-SW 0,8 km/h (0 Bft)
08.01.2014 17:00 3,8 C 92 % 1024,4 hPa 0,0 mm W 1,2 km/h (1 Bft)
08.01.2014 18:00 2,5 C 93 % 1024,6 hPa 0,0 mm W 1,1 km/h (0 Bft)
08.01.2014 19:00 2,2 C 93 % 1024,8 hPa 0,0 mm W 1,6 km/h (1 Bft)
08.01.2014 20:00 1,3 C 93 % 1024,8 hPa 0,0 mm W 1,7 km/h (1 Bft)
08.01.2014 21:00 0,9 C 93 % 1024,4 hPa 0,0 mm W 1,7 km/h (1 Bft)
08.01.2014 22:00 0,6 C 93 % 1024,1 hPa 0,0 mm W 0,8 km/h (0 Bft)
08.01.2014 23:00 0,4 C 93 % 1023,5 hPa 0,0 mm W 2,1 km/h (1 Bft)
09.01.2014 00:00 0,4 C 93 % 1022,8 hPa 0,0 mm W 1,6 km/h (1 Bft)
09.01.2014 01:00 0,2 C 93 % 1022,1 hPa 0,0 mm W 2,5 km/h (1 Bft)
09.01.2014 02:00 0,0 C 94 % 1021,6 hPa 0,0 mm W 2,1 km/h (1 Bft)
09.01.2014 03:00 -0,2 C 94 % 1021,0 hPa 0,0 mm W 2,3 km/h (1 Bft)
09.01.2014 04:00 -0,3 C 94 % 1020,4 hPa 0,0 mm W 2,7 km/h (1 Bft)
09.01.2014 05:00 -0,6 C 94 % 1019,9 hPa 0,0 mm W 1,3 km/h (1 Bft)
09.01.2014 06:00 -0,9 C 94 % 1019,3 hPa 0,0 mm W 0,8 km/h (0 Bft)
09.01.2014 07:00 -1,0 C 94 % 1019,0 hPa 0,0 mm W 0,3 km/h (0 Bft)
09.01.2014 08:00 -0,5 C 94 % 1019,0 hPa 0,0 mm W 1,9 km/h (1 Bft)
09.01.2014 09:00 1,4 C 94 % 1018,9 hPa 0,0 mm W 0,8 km/h (0 Bft)
09.01.2014 10:00 4,8 C 91 % 1018,8 hPa 0,0 mm W 1,1 km/h (0 Bft)
09.01.2014 11:00 7,4 C 86 % 1018,2 hPa 0,0 mm W 0,3 km/h (0 Bft)
09.01.2014 12:00 8,9 C 81 % 1017,2 hPa 0,0 mm S 1,5 km/h (1 Bft)
09.01.2014 13:00 10,3 C 77 % 1016,3 hPa 0,0 mm S 0,8 km/h (0 Bft)
09.01.2014 14:00 10,4 C 79 % 1015,9 hPa 0,0 mm S 0,3 km/h (0 Bft)
09.01.2014 15:00 8,6 C 82 % 1015,7 hPa 0,0 mm S 0,1 km/h (0 Bft)
09.01.2014 16:00 5,7 C 88 % 1015,3 hPa 0,0 mm W-SW 2,1 km/h (1 Bft)
09.01.2014 17:00 4,2 C 90 % 1015,2 hPa 0,0 mm W 2,0 km/h (1 Bft)
09.01.2014 18:00 4,2 C 91 % 1014,6 hPa 0,0 mm W-SW 3,3 km/h (1 Bft)
09.01.2014 19:00 3,9 C 91 % 1014,2 hPa 0,0 mm W 5,2 km/h (1 Bft)
09.01.2014 20:00 4,1 C 90 % 1014,1 hPa 0,0 mm W 4,8 km/h (1 Bft)
09.01.2014 21:00 3,7 C 91 % 1013,8 hPa 0,0 mm W 2,7 km/h (1 Bft)
09.01.2014 22:00 3,4 C 91 % 1013,3 hPa 0,0 mm W 3,6 km/h (1 Bft)
09.01.2014 23:00 3,4 C 91 % 1013,2 hPa 0,0 mm W 3,1 km/h (1 Bft)
10.01.2014 00:00 4,2 C 91 % 1013,5 hPa 0,0 mm W 4,7 km/h (1 Bft)
10.01.2014 01:00 8,0 C 79 % 1014,4 hPa 0,0 mm W 14,0 km/h (3 Bft)
10.01.2014 02:00 7,7 C 86 % 1015,9 hPa 1,4 mm W 22,0 km/h (4 Bft)
10.01.2014 03:00 5,4 C 92 % 1017,5 hPa 2,6 mm W-SW 13,7 km/h (3 Bft)
10.01.2014 04:00 4,3 C 92 % 1018,4 hPa 1,8 mm W 9,7 km/h (2 Bft)
10.01.2014 05:00 3,9 C 92 % 1019,4 hPa 2,0 mm W 13,8 km/h (3 Bft)
10.01.2014 06:00 3,3 C 93 % 1020,0 hPa 1,6 mm W 7,1 km/h (2 Bft)
10.01.2014 07:00 3,0 C 93 % 1020,4 hPa 0,4 mm W 4,8 km/h (1 Bft)
10.01.2014 08:00 3,3 C 93 % 1020,8 hPa 0,2 mm W 6,6 km/h (2 Bft)
10.01.2014 09:00 4,0 C 93 % 1021,1 hPa 0,0 mm W 13,0 km/h (3 Bft)
10.01.2014 10:00 5,1 C 91 % 1021,5 hPa 0,0 mm W 12,9 km/h (3 Bft)
10.01.2014 11:00 6,4 C 86 % 1021,5 hPa 0,0 mm W 13,3 km/h (3 Bft)
10.01.2014 12:00 6,3 C 82 % 1021,0 hPa 0,0 mm W 11,2 km/h (2 Bft)
10.01.2014 13:00 6,8 C 79 % 1020,5 hPa 0,0 mm W 8,4 km/h (2 Bft)
10.01.2014 14:00 6,8 C 80 % 1020,4 hPa 0,0 mm W 6,2 km/h (2 Bft)
10.01.2014 15:00 6,3 C 83 % 1020,9 hPa 0,0 mm W 3,5 km/h (1 Bft)
10.01.2014 16:00 4,8 C 87 % 1021,0 hPa 0,0 mm N 0,5 km/h (0 Bft)
10.01.2014 17:00 3,0 C 91 % 1021,3 hPa 0,0 mm W 0,5 km/h (0 Bft)
10.01.2014 18:00 2,8 C 92 % 1021,5 hPa 0,0 mm W 0,7 km/h (0 Bft)
10.01.2014 19:00 2,2 C 93 % 1021,7 hPa 0,0 mm W 0,8 km/h (0 Bft)
10.01.2014 20:00 1,6 C 93 % 1021,7 hPa 0,0 mm W 1,7 km/h (1 Bft)
10.01.2014 21:00 0,2 C 93 % 1021,6 hPa 0,0 mm W 0,8 km/h (0 Bft)
10.01.2014 22:00 -0,2 C 93 % 1021,4 hPa 0,0 mm W 1,2 km/h (1 Bft)
10.01.2014 23:00 -0,3 C 93 % 1021,3 hPa 0,0 mm W 0,9 km/h (0 Bft)
11.01.2014 00:00 -0,5 C 93 % 1021,3 hPa 0,0 mm W 0,8 km/h (0 Bft)
11.01.2014 01:00 -0,4 C 93 % 1021,2 hPa 0,0 mm W 1,5 km/h (1 Bft)
11.01.2014 02:00 -0,1 C 93 % 1020,9 hPa 0,0 mm W 0,8 km/h (0 Bft)
11.01.2014 03:00 -0,1 C 93 % 1020,7 hPa 0,0 mm W 0,0 km/h (0 Bft)
11.01.2014 04:00 -0,3 C 93 % 1020,7 hPa 0,0 mm W 1,1 km/h (0 Bft)
11.01.2014 05:00 -0,8 C 94 % 1020,5 hPa 0,0 mm W 2,1 km/h (1 Bft)
11.01.2014 06:00 -1,3 C 94 % 1020,2 hPa 0,0 mm W 0,4 km/h (0 Bft)
11.01.2014 07:00 -1,3 C 93 % 1020,3 hPa 0,0 mm W 0,9 km/h (0 Bft)
11.01.2014 08:00 -0,5 C 94 % 1020,5 hPa 0,0 mm W 0,0 km/h (0 Bft)
11.01.2014 09:00 0,3 C 94 % 1020,3 hPa 0,0 mm W 1,2 km/h (1 Bft)
11.01.2014 10:00 1,2 C 94 % 1020,0 hPa 0,0 mm S 3,9 km/h (1 Bft)
11.01.2014 11:00 2,8 C 94 % 1019,6 hPa 0,0 mm O 2,9 km/h (1 Bft)
11.01.2014 12:00 5,3 C 92 % 1018,9 hPa 0,0 mm O 0,3 km/h (0 Bft)
11.01.2014 13:00 6,0 C 90 % 1018,5 hPa 0,0 mm O 0,0 km/h (0 Bft)
11.01.2014 14:00 6,3 C 89 % 1018,8 hPa 0,0 mm O 0,0 km/h (0 Bft)
11.01.2014 15:00 6,0 C 91 % 1019,4 hPa 0,0 mm O 0,0 km/h (0 Bft)
11.01.2014 16:00 6,2 C 91 % 1020,1 hPa 0,0 mm W 3,3 km/h (1 Bft)
11.01.2014 17:00 4,5 C 92 % 1020,2 hPa 0,0 mm O 0,9 km/h (0 Bft)
11.01.2014 18:00 4,3 C 93 % 1020,3 hPa 0,0 mm S-SW 0,0 km/h (0 Bft)
11.01.2014 19:00 4,8 C 93 % 1021,1 hPa 0,6 mm SW 2,1 km/h (1 Bft)
11.01.2014 20:00 5,3 C 93 % 1021,2 hPa 0,0 mm W-SW 1,7 km/h (1 Bft)
11.01.2014 21:00 5,8 C 93 % 1021,6 hPa 0,0 mm W-SW 3,1 km/h (1 Bft)
11.01.2014 22:00 6,9 C 92 % 1022,7 hPa 0,8 mm W 10,1 km/h (2 Bft)
11.01.2014 23:00 7,1 C 91 % 1023,6 hPa 0,6 mm W 18,4 km/h (3 Bft)
12.01.2014 00:00 6,8 C 91 % 1023,9 hPa 0,0 mm W 14,5 km/h (3 Bft)
12.01.2014 01:00 6,4 C 91 % 1024,2 hPa 0,4 mm W-NW 13,0 km/h (3 Bft)
12.01.2014 02:00 6,0 C 92 % 1024,6 hPa 0,2 mm W 16,0 km/h (3 Bft)
12.01.2014 03:00 5,8 C 91 % 1024,9 hPa 0,0 mm W 14,6 km/h (3 Bft)
12.01.2014 04:00 5,3 C 90 % 1025,3 hPa 0,2 mm W 14,2 km/h (3 Bft)
12.01.2014 05:00 4,4 C 90 % 1025,7 hPa 0,0 mm W 9,4 km/h (2 Bft)
12.01.2014 06:00 4,1 C 91 % 1025,9 hPa 0,2 mm W 3,7 km/h (1 Bft)
12.01.2014 07:00 3,8 C 92 % 1026,4 hPa 0,0 mm W-NW 2,9 km/h (1 Bft)
12.01.2014 08:00 3,8 C 91 % 1026,7 hPa 0,0 mm W-NW 4,4 km/h (1 Bft)
12.01.2014 09:00 4,0 C 91 % 1026,8 hPa 0,0 mm W 2,3 km/h (1 Bft)
12.01.2014 10:00 4,3 C 90 % 1027,0 hPa 0,0 mm W 0,9 km/h (0 Bft)
12.01.2014 11:00 5,3 C 86 % 1026,5 hPa 0,0 mm W 3,6 km/h (1 Bft)
12.01.2014 12:00 5,7 C 79 % 1025,7 hPa 0,0 mm W 3,7 km/h (1 Bft)
12.01.2014 13:00 5,7 C 76 % 1024,8 hPa 0,0 mm W-NW 1,6 km/h (1 Bft)
12.01.2014 14:00 5,5 C 79 % 1024,1 hPa 0,0 mm W 1,1 km/h (0 Bft)
12.01.2014 15:00 3,8 C 87 % 1023,8 hPa 0,0 mm W 0,4 km/h (0 Bft)
12.01.2014 16:00 2,1 C 91 % 1023,5 hPa 0,0 mm W 0,1 km/h (0 Bft)
12.01.2014 17:00 1,0 C 91 % 1023,1 hPa 0,0 mm W 0,3 km/h (0 Bft)
12.01.2014 18:00 -0,2 C 92 % 1022,9 hPa 0,0 mm W 0,1 km/h (0 Bft)
12.01.2014 19:00 -1,2 C 92 % 1022,7 hPa 0,0 mm W 0,7 km/h (0 Bft)
12.01.2014 20:00 -1,8 C 93 % 1022,7 hPa 0,0 mm W 0,4 km/h (0 Bft)
12.01.2014 21:00 -2,4 C 93 % 1022,6 hPa 0,0 mm W 0,5 km/h (0 Bft)
12.01.2014 22:00 -2,1 C 93 % 1022,1 hPa 0,0 mm W 0,4 km/h (0 Bft)
12.01.2014 23:00 -0,3 C 93 % 1021,6 hPa 0,0 mm W-SW 1,6 km/h (1 Bft)
Min-Datum _ 12.01.14 09.01.14 09.01.14 - - 06.01.14
_ Min-Zeit 21:50 14:05 23:25 - - 01:00
Minimum _ -2,6 C 73 % 1013,1 hPa - - 0,0 km/h (0 Bft)
Max-Datum _ 09.01.14 06.01.14 12.01.14 10.01.14 - 10.01.14
_ Max-Zeit 14:00 01:25 10:10 03:00 - 02:20
Maximum _ 10,9 C 94 % 1027,0 hPa 2,6 mm - 29,0 km/h
W (5 Bft)
Durchschnitt _ 2,9 C 91 % 1021,1 hPa #13,2 mm W 3,1 km/h (1 Bft)